Svitzer Stanlow — MLNF7 — position and weather

sailwx.info

Track history (hours):
 
Tides and Currents Weather Stations Pressure Air Temp Water Temp Dewpoint Dewpoint Depression Visibility Wind Speed Wind Dir Waves Ship Positions

Svitzer Stanlow

Last reported at 2017-Aug-23 03:58 UTC. Time now 2017-Aug-23 04:03 UTC.
Position N 53°23' W 002°60'.

Length 39 m.

Type: Tug. MMSI: 235010620.

Date/timePositionNaut miles runAvg speedWind from/ knotsBaromVisibWave heightAir tempDewpointWater temp
2017-Aug-23 03:58N 53°23' W 002°60'0 0.0
2017-Aug-23 03:28N 53°23' W 002°60'0 0.0
2017-Aug-23 02:55N 53°23' W 002°60'0 0.0
2017-Aug-23 02:31N 53°23' W 002°60'0 0.0
2017-Aug-23 02:01N 53°23' W 002°60'0 0.0
2017-Aug-23 01:31N 53°23' W 002°60'0 0.0
2017-Aug-23 00:57N 53°23' W 002°60'0 0.0
2017-Aug-23 00:30N 53°23' W 002°60'0 0.0
2017-Aug-23 00:00N 53°23' W 002°60'4 8.5
2017-Aug-22 23:30N 53°27' W 003°01'0 0.5
2017-Aug-22 23:00N 53°27' W 003°01'4 7.9
2017-Aug-22 22:30N 53°23' W 002°60'0 0.3
2017-Aug-22 21:59N 53°23' W 002°60'0 0.0
2017-Aug-22 21:29N 53°23' W 002°60'0 0.0
2017-Aug-22 20:59N 53°23' W 002°60'0 0.0
2017-Aug-22 20:29N 53°23' W 002°60'0 0.0
2017-Aug-22 19:50N 53°23' W 002°60'0 0.0
2017-Aug-22 19:14N 53°23' W 002°60'0 0.0
2017-Aug-22 18:56N 53°23' W 002°60'0 0.0
2017-Aug-22 18:29N 53°23' W 002°60'0 0.0
2017-Aug-22 17:50N 53°23' W 002°60'0 0.0
2017-Aug-22 17:29N 53°23' W 002°60'0 0.0
2017-Aug-22 16:59N 53°23' W 002°60'0 0.0
2017-Aug-22 16:26N 53°23' W 002°60'0 0.0
2017-Aug-22 15:59N 53°23' W 002°60'0 0.0
2017-Aug-22 15:29N 53°23' W 002°60'0 0.0
2017-Aug-22 14:50N 53°23' W 002°60'0 0.0
2017-Aug-22 14:26N 53°23' W 002°60'0 0.0
2017-Aug-22 13:56N 53°23' W 002°60'0 0.0
2017-Aug-22 13:29N 53°23' W 002°60'0 0.0
2017-Aug-22 12:59N 53°23' W 002°60'0 0.0
2017-Aug-22 12:26N 53°23' W 002°60'0 0.0
2017-Aug-22 11:56N 53°23' W 002°60'0 0.0
2017-Aug-22 11:26N 53°23' W 002°60'0 0.0
2017-Aug-22 10:59N 53°23' W 002°60'0 0.0
2017-Aug-22 10:29N 53°23' W 002°60'0 0.1
2017-Aug-22 09:57N 53°23' W 002°60'0 0.0
2017-Aug-22 09:30N 53°23' W 002°60'0 0.0
2017-Aug-22 08:54N 53°23' W 002°60'0 0.0
2017-Aug-22 08:30N 53°23' W 002°60'0 0.0
2017-Aug-22 07:57N 53°23' W 002°60'0 0.0
2017-Aug-22 07:30N 53°23' W 002°60'0 0.0
2017-Aug-22 06:54N 53°23' W 002°60'0 0.0
2017-Aug-22 06:30N 53°23' W 002°60'0 0.0
2017-Aug-22 05:42N 53°23' W 002°60'0 0.0
2017-Aug-22 05:29N 53°23' W 002°60'0 0.0
2017-Aug-22 04:56N 53°23' W 002°60'0 0.0
2017-Aug-22 04:29N 53°23' W 002°60'0 0.0
2017-Aug-22 03:59N 53°23' W 002°60'0 0.0
2017-Aug-22 03:29N 53°23' W 002°60'0 0.0
2017-Aug-22 02:59N 53°23' W 002°60'0 0.0
2017-Aug-22 02:29N 53°23' W 002°60'0 0.0
2017-Aug-22 01:59N 53°23' W 002°60'0 0.0
2017-Aug-22 01:29N 53°23' W 002°60'0 0.0
2017-Aug-22 00:59N 53°23' W 002°60'0 0.0
2017-Aug-22 00:29N 53°23' W 002°60'0 0.0
2017-Aug-21 23:59N 53°23' W 002°60'0 0.6
2017-Aug-21 23:29N 53°23' W 003°00'1 1.2
2017-Aug-21 22:59N 53°24' W 003°00'3 5.7
2017-Aug-21 22:30N 53°26' W 003°01'4 8.7
2017-Aug-21 22:00N 53°30' W 003°06'4 7.7
2017-Aug-21 21:30N 53°32' W 003°11'5 9.4
2017-Aug-21 21:00N 53°32' W 003°19'4 8.2
2017-Aug-21 20:30N 53°31' W 003°12'4 8.7
2017-Aug-21 20:00N 53°30' W 003°05'4 8.3
2017-Aug-21 19:30N 53°26' W 003°01'4 7.0
2017-Aug-21 18:58N 53°23' W 003°00'0 0.0
2017-Aug-21 18:28N 53°23' W 003°00'0 0.0
2017-Aug-21 17:55N 53°23' W 003°00'0 0.0
2017-Aug-21 17:25N 53°23' W 003°00'0 0.0
2017-Aug-21 16:52N 53°23' W 003°00'0 0.0
2017-Aug-21 16:25N 53°23' W 003°00'0 0.0
2017-Aug-21 15:58N 53°23' W 003°00'0 0.0
2017-Aug-21 15:28N 53°23' W 003°00'0 0.0
2017-Aug-21 14:58N 53°23' W 003°00'0 0.0
2017-Aug-21 14:28N 53°23' W 003°00'0 0.0
2017-Aug-21 13:52N 53°23' W 003°00'0 0.0
2017-Aug-21 13:28N 53°23' W 003°00'0 0.0
2017-Aug-21 12:58N 53°23' W 003°00'0 0.0
2017-Aug-21 12:28N 53°23' W 003°00'0 0.0
2017-Aug-21 11:58N 53°23' W 003°00'0 0.0
2017-Aug-21 11:29N 53°23' W 003°00'4 8.1
2017-Aug-21 10:58N 53°27' W 003°01'0 0.9
2017-Aug-21 10:30N 53°27' W 003°01'0 0.8
2017-Aug-21 10:00N 53°27' W 003°01'0 0.5
2017-Aug-21 09:30N 53°27' W 003°01'0 0.4
2017-Aug-21 09:00N 53°27' W 003°01'4 7.8
2017-Aug-21 08:30N 53°23' W 003°00'0 0.1
2017-Aug-21 07:58N 53°23' W 003°00'0 0.0
2017-Aug-21 07:28N 53°23' W 003°00'0 0.0
2017-Aug-21 06:58N 53°23' W 003°00'0 0.0
2017-Aug-21 06:28N 53°23' W 003°00'0 0.0
2017-Aug-21 05:58N 53°23' W 003°00'0 0.0
2017-Aug-21 05:28N 53°23' W 003°00'0 0.0
2017-Aug-21 04:58N 53°23' W 003°00'0 0.0
2017-Aug-21 04:28N 53°23' W 003°00'0 0.0
2017-Aug-21 03:58N 53°23' W 003°00'0 0.0
2017-Aug-21 03:28N 53°23' W 003°00'0 0.0
2017-Aug-21 02:58N 53°23' W 003°00'0 0.0
2017-Aug-21 02:28N 53°23' W 003°00'0 0.0
2017-Aug-21 01:58N 53°23' W 003°00'0 0.0
2017-Aug-21 01:28N 53°23' W 003°00'0 0.0
2017-Aug-21 00:55N 53°23' W 003°00'0 0.0
2017-Aug-21 00:28N 53°23' W 003°00'0 0.0
2017-Aug-20 23:58N 53°23' W 003°00'0 0.0
2017-Aug-20 23:28N 53°23' W 003°00'0 0.4
2017-Aug-20 22:59N 53°23' W 002°60'0 0.0
2017-Aug-20 22:29N 53°23' W 002°60'0 0.5
2017-Aug-20 21:56N 53°23' W 003°00'1 3.0
2017-Aug-20 21:30N 53°24' W 003°01'4 7.7
2017-Aug-20 21:00N 53°28' W 003°03'5 9.7
2017-Aug-20 20:30N 53°32' W 003°08'5 9.8
2017-Aug-20 20:00N 53°31' W 003°16'1 1.2
2017-Aug-20 19:30N 53°32' W 003°15'5 8.9
2017-Aug-20 19:00N 53°32' W 003°08'4 9.1
2017-Aug-20 18:30N 53°28' W 003°03'2 2.4
2017-Aug-20 17:51N 53°27' W 003°01'2 4.3
2017-Aug-20 17:26N 53°25' W 003°00'0 0.0
2017-Aug-20 16:59N 53°25' W 003°00'0 0.0
2017-Aug-20 16:26N 53°25' W 003°00'0 0.0
2017-Aug-20 15:59N 53°25' W 003°00'0 0.0
2017-Aug-20 15:26N 53°25' W 003°00'0 0.0
2017-Aug-20 14:59N 53°25' W 003°00'0 0.0
2017-Aug-20 14:29N 53°25' W 003°00'0 0.0
2017-Aug-20 13:56N 53°25' W 003°00'0 0.0
2017-Aug-20 13:26N 53°25' W 003°00'0 0.0
2017-Aug-20 12:59N 53°25' W 003°00'0 0.0
2017-Aug-20 12:29N 53°25' W 003°00'0 0.0
2017-Aug-20 11:59N 53°25' W 003°00'0 0.0
2017-Aug-20 11:29N 53°25' W 003°00'0 0.0
2017-Aug-20 10:53N 53°25' W 003°00'0 0.0
2017-Aug-20 10:26N 53°25' W 003°00'0 0.0
2017-Aug-20 09:59N 53°25' W 003°00'0 0.0
2017-Aug-20 09:29N 53°25' W 003°00'0 0.0
2017-Aug-20 08:56N 53°25' W 003°00'0 0.0
2017-Aug-20 08:23N 53°25' W 003°00'0 0.0
2017-Aug-20 07:59N 53°25' W 003°00'0 0.0
2017-Aug-20 07:29N 53°25' W 003°00'0 0.0
2017-Aug-20 06:59N 53°25' W 003°00'0 0.0
2017-Aug-20 06:29N 53°25' W 003°00'0 0.0
2017-Aug-20 05:59N 53°25' W 003°00'0 0.0
2017-Aug-20 05:29N 53°25' W 003°00'0 0.0
2017-Aug-20 04:53N 53°25' W 003°00'0 0.0
2017-Aug-20 04:29N 53°25' W 003°00'0 0.0
2017-Aug-20 03:56N 53°25' W 003°00'0 0.0
2017-Aug-20 03:29N 53°25' W 003°00'0 0.0
2017-Aug-20 02:59N 53°25' W 003°00'0 0.0
2017-Aug-20 02:29N 53°25' W 003°00'0 0.0
2017-Aug-20 01:56N 53°25' W 003°00'0 0.0
2017-Aug-20 01:29N 53°25' W 003°00'0 0.0
2017-Aug-20 00:59N 53°25' W 003°00'0 0.0
2017-Aug-20 00:29N 53°25' W 003°00'0 0.0
2017-Aug-19 23:59N 53°25' W 003°00'0 0.0
2017-Aug-19 23:26N 53°25' W 003°00'0 0.0
2017-Aug-19 22:59N 53°25' W 003°00'0 0.0
2017-Aug-19 22:29N 53°25' W 003°00'0 0.0
2017-Aug-19 21:59N 53°25' W 003°00'0 0.0
2017-Aug-19 21:14N 53°25' W 003°00'0 0.0
2017-Aug-19 20:53N 53°25' W 003°00'0 0.0
2017-Aug-19 20:26N 53°25' W 003°00'0 0.0
2017-Aug-19 19:59N 53°25' W 003°00'2 3.3
2017-Aug-19 19:30N 53°27' W 003°01'0 0.6
2017-Aug-19 18:52N 53°27' W 003°01'0 0.1
2017-Aug-19 18:25N 53°27' W 003°01'0 0.0
2017-Aug-19 18:01N 53°27' W 003°01'0 0.0
2017-Aug-19 17:28N 53°27' W 003°01'0 0.1
2017-Aug-19 17:01N 53°27' W 003°01'0 0.7
2017-Aug-19 16:28N 53°27' W 003°01'0 0.0
2017-Aug-19 15:58N 53°27' W 003°01'0 0.0
2017-Aug-19 15:25N 53°27' W 003°01'0 0.0
2017-Aug-19 14:57N 53°27' W 003°01'0 0.0
2017-Aug-19 13:57N 53°27' W 003°01'0 0.0
2017-Aug-19 13:30N 53°27' W 003°01'0 0.3
2017-Aug-19 12:59N 53°28' W 003°01'1 1.0
2017-Aug-19 12:26N 53°27' W 003°01'0 0.4
2017-Aug-19 12:00N 53°27' W 003°01'1 0.9
2017-Aug-19 11:27N 53°27' W 003°01'1 1.3
2017-Aug-19 11:00N 53°27' W 003°02'1 1.7
2017-Aug-19 10:27N 53°26' W 003°01'0 0.0
2017-Aug-19 10:00N 53°26' W 003°01'1 1.8
2017-Aug-19 09:30N 53°25' W 003°00'0 0.0
2017-Aug-19 08:57N 53°25' W 003°00'0 0.0
2017-Aug-19 08:30N 53°25' W 003°00'0 0.0
2017-Aug-19 08:00N 53°25' W 003°00'0 0.0
2017-Aug-19 07:30N 53°25' W 003°00'0 0.0
2017-Aug-19 07:00N 53°25' W 003°00'0 0.0
2017-Aug-19 06:30N 53°25' W 003°00'0 0.0
2017-Aug-19 06:00N 53°25' W 003°00'0 0.0
2017-Aug-19 05:27N 53°25' W 003°00'0 0.0
2017-Aug-19 04:59N 53°25' W 003°00'0 0.0
2017-Aug-19 04:29N 53°25' W 003°00'0 0.0
2017-Aug-19 03:59N 53°25' W 003°00'0 0.0
2017-Aug-19 03:26N 53°25' W 003°00'0 0.0
2017-Aug-19 02:56N 53°25' W 003°00'0 0.0
2017-Aug-19 02:29N 53°25' W 003°00'0 0.0
2017-Aug-19 01:53N 53°25' W 003°00'0 0.0
2017-Aug-19 01:26N 53°25' W 003°00'0 0.0
2017-Aug-19 00:53N 53°25' W 003°00'0 0.0
2017-Aug-19 00:29N 53°25' W 003°00'0 0.0
2017-Aug-18 23:59N 53°25' W 003°00'0 0.0
2017-Aug-18 23:29N 53°25' W 003°00'0 0.0
2017-Aug-18 22:59N 53°25' W 003°00'0 0.0
2017-Aug-18 22:23N 53°25' W 003°00'0 0.0
2017-Aug-18 21:59N 53°25' W 003°00'0 0.0
2017-Aug-18 21:29N 53°25' W 003°00'0 0.0
2017-Aug-18 20:59N 53°25' W 003°00'0 0.0
2017-Aug-18 20:29N 53°25' W 003°00'0 0.0
2017-Aug-18 19:59N 53°25' W 003°00'0 0.0
2017-Aug-18 19:29N 53°25' W 003°00'0 0.0
2017-Aug-18 18:59N 53°25' W 003°00'0 0.0
2017-Aug-18 18:29N 53°25' W 003°00'0 0.0
2017-Aug-18 17:59N 53°25' W 003°00'0 0.0
2017-Aug-18 17:29N 53°25' W 003°00'0 0.0
2017-Aug-18 16:59N 53°25' W 003°00'0 0.0
2017-Aug-18 16:29N 53°25' W 003°00'0 0.0
2017-Aug-18 15:59N 53°25' W 003°00'0 0.0
2017-Aug-18 15:29N 53°25' W 003°00'0 0.0
2017-Aug-18 14:56N 53°25' W 003°00'0 0.0
2017-Aug-18 14:29N 53°25' W 003°00'0 0.0
2017-Aug-18 13:29N 53°25' W 003°00'0 0.0
2017-Aug-18 12:59N 53°25' W 003°00'0 0.0
2017-Aug-18 12:29N 53°25' W 003°00'0 0.0
2017-Aug-18 11:56N 53°25' W 003°00'0 0.0
2017-Aug-18 11:29N 53°25' W 003°00'0 0.0
2017-Aug-18 10:59N 53°25' W 003°00'0 0.0
2017-Aug-18 10:29N 53°25' W 003°00'0 0.0
2017-Aug-18 09:59N 53°25' W 003°00'0 0.0
2017-Aug-18 09:29N 53°25' W 003°00'0 0.0
2017-Aug-18 08:59N 53°25' W 003°00'0 0.0
2017-Aug-18 08:29N 53°25' W 003°00'0 0.0
2017-Aug-18 07:56N 53°25' W 003°00'0 0.0
2017-Aug-18 07:26N 53°25' W 003°00'0 0.0
2017-Aug-18 06:56N 53°25' W 003°00'0 0.0
2017-Aug-18 06:29N 53°25' W 003°00'0 0.0
2017-Aug-18 05:56N 53°25' W 003°00'0 0.0
2017-Aug-18 05:29N 53°25' W 003°00'0 0.0
2017-Aug-18 04:59N 53°25' W 003°00'0 0.0
2017-Aug-18 04:29N 53°25' W 003°00'0 0.0
2017-Aug-18 03:59N 53°25' W 003°00'0 0.0
2017-Aug-18 03:29N 53°25' W 003°00'0 0.0
2017-Aug-18 02:56N 53°25' W 003°00'0 0.0
2017-Aug-18 02:29N 53°25' W 003°00'0 0.0
2017-Aug-18 01:59N 53°25' W 003°00'0 0.0
2017-Aug-18 01:26N 53°25' W 003°00'0 0.0
2017-Aug-18 00:59N 53°25' W 003°00'0 0.0
2017-Aug-18 00:29N 53°25' W 003°00'0 0.0
2017-Aug-17 23:59N 53°25' W 003°00'0 0.0
2017-Aug-17 23:29N 53°25' W 003°00'0 0.0
2017-Aug-17 22:59N 53°25' W 003°00'0 0.0
2017-Aug-17 22:26N 53°25' W 003°00'0 0.0
2017-Aug-17 21:59N 53°25' W 003°00'0 0.0
2017-Aug-17 21:26N 53°25' W 003°00'0 0.0
2017-Aug-17 20:56N 53°25' W 003°00'0 0.0
2017-Aug-17 20:26N 53°25' W 003°00'0 0.0
2017-Aug-17 19:59N 53°25' W 003°00'0 0.0
2017-Aug-17 19:25N 53°25' W 003°00'0 0.0
2017-Aug-17 18:55N 53°25' W 003°00'0 0.0
2017-Aug-17 18:28N 53°25' W 003°00'0 0.0
2017-Aug-17 17:58N 53°25' W 003°00'0 0.0
2017-Aug-17 17:28N 53°25' W 003°00'0 0.0
2017-Aug-17 16:58N 53°25' W 003°00'0 0.0
2017-Aug-17 16:28N 53°25' W 003°00'0 0.0
2017-Aug-17 15:58N 53°25' W 003°00'0 0.0
2017-Aug-17 15:28N 53°25' W 003°00'0 0.0
2017-Aug-17 14:58N 53°25' W 003°00'0 0.0
2017-Aug-17 14:22N 53°25' W 003°00'0 0.0
2017-Aug-17 13:52N 53°25' W 003°00'0 0.0
2017-Aug-17 13:28N 53°25' W 003°00'0 0.0
2017-Aug-17 12:58N 53°25' W 003°00'0 0.0
2017-Aug-17 12:28N 53°25' W 003°00'0 0.0
2017-Aug-17 11:55N 53°25' W 003°00'0 0.0
2017-Aug-17 11:28N 53°25' W 003°00'0 0.0
2017-Aug-17 10:55N 53°25' W 003°00'0 0.0
2017-Aug-17 10:28N 53°25' W 003°00'0 0.0
2017-Aug-17 09:52N 53°25' W 003°00'0 0.0
2017-Aug-17 09:25N 53°25' W 003°00'0 0.0
2017-Aug-17 08:58N 53°25' W 003°00'0 0.0
2017-Aug-17 08:28N 53°25' W 003°00'0 0.0
2017-Aug-17 07:55N 53°25' W 003°00'0 0.0
2017-Aug-17 07:28N 53°25' W 003°00'0 0.0
2017-Aug-17 06:55N 53°25' W 003°00'0 0.0
2017-Aug-17 06:28N 53°25' W 003°00'2 3.3
2017-Aug-17 06:00N 53°27' W 003°01'0 0.7
2017-Aug-17 05:27N 53°27' W 003°01'0 0.6
2017-Aug-17 05:00N 53°27' W 003°01'0 0.0
2017-Aug-17 04:30N 53°27' W 003°01'0 0.0
2017-Aug-17 03:58N 53°27' W 003°01'0 0.6
2017-Aug-17 03:30N 53°27' W 003°01'0 0.5
2017-Aug-17 02:55N 53°26' W 003°01'2 5.0
2017-Aug-17 02:30N 53°24' W 003°00'2 2.9
2017-Aug-17 01:55N 53°23' W 002°60'0 0.2
2017-Aug-17 01:28N 53°23' W 002°60'0 0.0
2017-Aug-17 00:55N 53°23' W 002°60'0 0.0
2017-Aug-17 00:28N 53°23' W 002°60'0 0.0
2017-Aug-16 23:55N 53°23' W 002°60'0 0.0
2017-Aug-16 23:28N 53°23' W 002°60'0 0.0
2017-Aug-16 22:55N 53°23' W 002°60'0 0.0
2017-Aug-16 22:28N 53°23' W 002°60'0 0.0
2017-Aug-16 21:55N 53°23' W 002°60'0 0.0
2017-Aug-16 21:31N 53°23' W 002°60'0 0.0
2017-Aug-16 20:58N 53°23' W 002°60'0 0.0
2017-Aug-16 20:31N 53°23' W 002°60'0 0.0
2017-Aug-16 20:00N 53°23' W 002°60'0 0.0
2017-Aug-16 19:30N 53°23' W 002°60'0 0.0
2017-Aug-16 19:00N 53°23' W 002°60'0 0.0
2017-Aug-16 18:30N 53°23' W 002°60'0 0.0
2017-Aug-16 17:57N 53°23' W 002°60'0 0.0
2017-Aug-16 17:30N 53°23' W 002°60'0 0.0
2017-Aug-16 17:00N 53°23' W 002°60'0 0.1
2017-Aug-16 16:30N 53°23' W 002°60'4 8.6
2017-Aug-16 16:00N 53°27' W 003°01'0 0.5
2017-Aug-16 15:27N 53°27' W 003°01'2 5.5
2017-Aug-16 15:00N 53°29' W 003°04'2 4.0
2017-Aug-16 14:30N 53°27' W 003°02'4 8.4
2017-Aug-16 14:00N 53°23' W 002°60'0 0.5
2017-Aug-16 13:29N 53°23' W 002°60'0 0.0
2017-Aug-16 12:59N 53°23' W 002°60'0 0.2
2017-Aug-16 12:28N 53°23' W 002°60'0 0.0
2017-Aug-16 11:58N 53°23' W 002°60'0 0.0
2017-Aug-16 11:28N 53°23' W 002°60'0 0.0
2017-Aug-16 10:58N 53°23' W 002°60'0 0.0
2017-Aug-16 10:28N 53°23' W 002°60'0 0.0
2017-Aug-16 09:58N 53°23' W 002°60'0 0.0
2017-Aug-16 09:28N 53°23' W 002°60'0 0.0
2017-Aug-16 08:58N 53°23' W 002°60'0 0.0
2017-Aug-16 08:28N 53°23' W 002°60'0 0.0
2017-Aug-16 07:58N 53°23' W 002°60'0 0.0
2017-Aug-16 07:28N 53°23' W 002°60'0 0.0
2017-Aug-16 06:58N 53°23' W 002°60'0 0.0
2017-Aug-16 06:25N 53°23' W 002°60'0 0.0
2017-Aug-16 05:55N 53°23' W 002°60'0 0.0
2017-Aug-16 05:28N 53°23' W 002°60'0 0.0
2017-Aug-16 04:55N 53°23' W 002°60'0 0.0
2017-Aug-16 04:28N 53°23' W 002°60'0 0.0
2017-Aug-16 03:58N 53°23' W 002°60'0 0.0
2017-Aug-16 03:25N 53°23' W 002°60'0 0.0
2017-Aug-16 03:01N 53°23' W 002°60'0 0.0
2017-Aug-16 02:30N 53°23' W 002°60'0 0.0
2017-Aug-16 01:57N 53°23' W 002°60'0 0.0
2017-Aug-16 01:30N 53°23' W 002°60'0 0.0
2017-Aug-16 00:57N 53°23' W 002°60'0 0.0
2017-Aug-16 00:24N 53°23' W 002°60'0 0.0
2017-Aug-15 23:54N 53°23' W 002°60'0 0.0
2017-Aug-15 23:24N 53°23' W 002°60'0 0.0
2017-Aug-15 23:00N 53°23' W 002°60'0 0.0
2017-Aug-15 22:24N 53°23' W 002°60'0 0.0
2017-Aug-15 22:00N 53°23' W 002°60'0 0.0
2017-Aug-15 21:18N 53°23' W 002°60'0 0.0
2017-Aug-15 21:00N 53°23' W 002°60'0 0.0
2017-Aug-15 20:30N 53°23' W 002°60'0 0.0
2017-Aug-15 19:57N 53°23' W 002°60'0 0.0
2017-Aug-15 19:27N 53°23' W 002°60'0 0.0
2017-Aug-15 18:57N 53°23' W 002°60'0 0.0
2017-Aug-15 18:27N 53°23' W 002°60'0 0.0
2017-Aug-15 17:57N 53°23' W 002°60'0 0.0
2017-Aug-15 17:30N 53°23' W 002°60'0 0.0
2017-Aug-15 17:00N 53°23' W 002°60'0 0.0
2017-Aug-15 16:27N 53°23' W 002°60'0 0.0
2017-Aug-15 16:00N 53°23' W 002°60'0 0.0
2017-Aug-15 15:30N 53°23' W 002°60'0 0.1
2017-Aug-15 14:49N 53°23' W 002°60'2 3.8
2017-Aug-15 14:21N 53°24' W 003°00'0 0.0
2017-Aug-15 14:00N 53°24' W 003°00'0 0.0
2017-Aug-15 13:30N 53°24' W 003°00'0 0.0
2017-Aug-15 13:00N 53°24' W 003°00'0 0.0
2017-Aug-15 12:21N 53°24' W 003°00'0 0.0
2017-Aug-15 12:00N 53°24' W 003°00'0 0.0
2017-Aug-15 11:27N 53°24' W 003°00'0 0.0
2017-Aug-15 11:00N 53°24' W 003°00'0 0.0
2017-Aug-15 10:30N 53°24' W 003°00'0 0.0
2017-Aug-15 10:00N 53°24' W 003°00'0 0.0
2017-Aug-15 09:30N 53°24' W 003°00'0 0.0
2017-Aug-15 09:00N 53°24' W 003°00'0 0.0
2017-Aug-15 08:27N 53°24' W 003°00'0 0.0
2017-Aug-15 08:00N 53°24' W 003°00'0 0.0
2017-Aug-15 07:24N 53°24' W 003°00'0 0.0
2017-Aug-15 07:00N 53°24' W 003°00'0 0.0
2017-Aug-15 06:30N 53°24' W 003°00'0 0.0
2017-Aug-15 06:00N 53°24' W 003°00'0 0.0
2017-Aug-15 05:30N 53°24' W 003°00'0 0.0
2017-Aug-15 05:00N 53°24' W 003°00'0 0.5
2017-Aug-15 04:30N 53°24' W 003°00'1 2.4
2017-Aug-15 03:59N 53°23' W 003°00'1 2.0
2017-Aug-15 03:30N 53°24' W 003°00'4 8.3
2017-Aug-15 03:00N 53°28' W 003°03'4 8.9
2017-Aug-15 02:30N 53°31' W 003°07'4 8.5
2017-Aug-15 02:00N 53°31' W 003°14'1 2.1
2017-Aug-15 01:30N 53°31' W 003°13'5 9.4
2017-Aug-15 01:00N 53°30' W 003°05'5 9.9
2017-Aug-15 00:30N 53°26' W 003°01'3 5.5
2017-Aug-15 00:00N 53°23' W 003°00'0 0.0
2017-Aug-14 23:30N 53°23' W 003°00'0 0.0
2017-Aug-14 22:57N 53°23' W 003°00'0 0.0
2017-Aug-14 22:30N 53°23' W 003°00'0 0.0
2017-Aug-14 22:00N 53°23' W 003°00'0 0.0
2017-Aug-14 21:30N 53°23' W 003°00'0 0.0
2017-Aug-14 21:00N 53°23' W 003°00'0 0.0
2017-Aug-14 20:30N 53°23' W 003°00'0 0.0
2017-Aug-14 19:57N 53°23' W 003°00'0 0.0
2017-Aug-14 19:30N 53°23' W 003°00'0 0.0
2017-Aug-14 19:00N 53°23' W 003°00'0 0.0
2017-Aug-14 18:29N 53°23' W 003°00'0 0.0
2017-Aug-14 17:56N 53°23' W 003°00'0 0.0
2017-Aug-14 17:29N 53°23' W 003°00'0 0.0
2017-Aug-14 16:59N 53°23' W 003°00'0 0.0
2017-Aug-14 16:29N 53°23' W 003°00'0 0.0
2017-Aug-14 15:59N 53°23' W 003°00'0 0.0
2017-Aug-14 15:26N 53°23' W 003°00'0 0.0
2017-Aug-14 14:59N 53°23' W 003°00'0 0.0
2017-Aug-14 14:29N 53°23' W 003°00'0 0.0
2017-Aug-14 13:53N 53°23' W 003°00'0 0.0
2017-Aug-14 13:29N 53°23' W 003°00'0 0.0
2017-Aug-14 12:59N 53°23' W 003°00'0 0.0
2017-Aug-14 12:29N 53°23' W 003°00'0 0.0
2017-Aug-14 11:56N 53°23' W 003°00'0 0.0
2017-Aug-14 11:26N 53°23' W 003°00'0 0.0
2017-Aug-14 10:53N 53°23' W 003°00'0 0.0
2017-Aug-14 10:29N 53°23' W 003°00'0 0.0
2017-Aug-14 09:59N 53°23' W 003°00'0 0.0
2017-Aug-14 09:29N 53°23' W 003°00'0 0.0
2017-Aug-14 08:56N 53°23' W 003°00'0 0.0
2017-Aug-14 08:20N 53°23' W 003°00'0 0.0
2017-Aug-14 07:59N 53°23' W 003°00'0 0.0
2017-Aug-14 07:26N 53°23' W 003°00'0 0.0
2017-Aug-14 06:59N 53°23' W 003°00'0 0.0
2017-Aug-14 06:29N 53°23' W 003°00'0 0.0
2017-Aug-14 05:56N 53°23' W 003°00'0 0.0
2017-Aug-14 05:29N 53°23' W 003°00'0 0.0
2017-Aug-14 04:59N 53°23' W 003°00'0 0.0
2017-Aug-14 04:29N 53°23' W 003°00'0 0.0
2017-Aug-14 03:59N 53°23' W 003°00'0 0.0
2017-Aug-14 03:26N 53°23' W 003°00'0 0.0
2017-Aug-14 02:56N 53°23' W 003°00'0 0.0
2017-Aug-14 02:29N 53°23' W 003°00'0 0.4
2017-Aug-14 02:00N 53°23' W 002°60'1 2.5
2017-Aug-14 01:30N 53°24' W 003°00'0 0.8
2017-Aug-14 00:58N 53°24' W 002°60'1 1.2
2017-Aug-14 00:30N 53°25' W 003°01'2 4.4
2017-Aug-14 00:00N 53°27' W 003°01'2 3.2
2017-Aug-13 23:30N 53°26' W 003°00'0 0.2
2017-Aug-13 22:59N 53°25' W 003°00'0 0.0
2017-Aug-13 22:29N 53°25' W 003°00'0 0.0
2017-Aug-13 21:59N 53°25' W 003°00'0 0.0
2017-Aug-13 21:29N 53°25' W 003°00'0 0.0
2017-Aug-13 20:59N 53°25' W 003°00'0 0.0
2017-Aug-13 20:29N 53°25' W 003°00'0 0.0
2017-Aug-13 19:53N 53°25' W 003°00'0 0.0
2017-Aug-13 19:29N 53°25' W 003°00'0 0.0
2017-Aug-13 18:59N 53°25' W 003°00'0 0.0
2017-Aug-13 18:29N 53°25' W 003°00'0 0.0
2017-Aug-13 17:59N 53°25' W 003°00'0 0.0
2017-Aug-13 17:29N 53°25' W 003°00'0 0.0
2017-Aug-13 16:59N 53°25' W 003°00'0 0.0
2017-Aug-13 16:26N 53°25' W 003°00'0 0.0
2017-Aug-13 15:58N 53°25' W 003°00'0 0.0
2017-Aug-13 15:25N 53°25' W 003°00'0 0.0
2017-Aug-13 14:58N 53°25' W 003°00'0 0.0
2017-Aug-13 14:28N 53°25' W 003°00'0 0.0
2017-Aug-13 13:58N 53°25' W 003°00'0 0.0
2017-Aug-13 13:28N 53°25' W 003°00'0 0.0
2017-Aug-13 12:58N 53°25' W 003°00'2 3.6
2017-Aug-13 12:28N 53°27' W 003°01'0 0.9
2017-Aug-13 11:58N 53°28' W 003°02'0 0.7
2017-Aug-13 11:30N 53°28' W 003°01'2 4.4
2017-Aug-13 10:59N 53°25' W 003°00'0 0.0
2017-Aug-13 10:23N 53°25' W 003°00'0 0.0
2017-Aug-13 09:59N 53°25' W 003°00'0 0.0
2017-Aug-13 09:29N 53°25' W 003°00'0 0.0
2017-Aug-13 08:59N 53°25' W 003°00'0 0.0
2017-Aug-13 08:29N 53°25' W 003°00'0 0.0
2017-Aug-13 07:59N 53°25' W 003°00'0 0.0
2017-Aug-13 07:26N 53°25' W 003°00'0 0.0
2017-Aug-13 06:59N 53°25' W 003°00'0 0.0
2017-Aug-13 06:29N 53°25' W 003°00'0 0.0
2017-Aug-13 05:50N 53°25' W 003°00'0 0.0
2017-Aug-13 05:29N 53°25' W 003°00'0 0.0
2017-Aug-13 04:59N 53°25' W 003°00'0 0.0
2017-Aug-13 04:29N 53°25' W 003°00'  
Track history (hours):
 
Tides and Currents Weather Stations Pressure Air Temp Water Temp Dewpoint Dewpoint Depression Visibility Wind Speed Wind Dir Waves Ship Positions

Svitzer Stanlow

Last reported at 2017-Aug-23 03:58 UTC. Time now 2017-Aug-23 04:03 UTC.
Position N 53°23' W 002°60'.

Length 39 m.

Type: Tug. MMSI: 235010620.

Date/timePositionNaut miles runAvg speedWind from/ knotsBaromVisibWave heightAir tempDewpointWater temp
2017-Aug-23 03:58N 53°23' W 002°60'0 0.0
2017-Aug-23 03:28N 53°23' W 002°60'0 0.0
2017-Aug-23 02:55N 53°23' W 002°60'0 0.0
2017-Aug-23 02:31N 53°23' W 002°60'0 0.0
2017-Aug-23 02:01N 53°23' W 002°60'0 0.0
2017-Aug-23 01:31N 53°23' W 002°60'0 0.0
2017-Aug-23 00:57N 53°23' W 002°60'0 0.0
2017-Aug-23 00:30N 53°23' W 002°60'0 0.0
2017-Aug-23 00:00N 53°23' W 002°60'4 8.5
2017-Aug-22 23:30N 53°27' W 003°01'0 0.5
2017-Aug-22 23:00N 53°27' W 003°01'4 7.9
2017-Aug-22 22:30N 53°23' W 002°60'0 0.3
2017-Aug-22 21:59N 53°23' W 002°60'0 0.0
2017-Aug-22 21:29N 53°23' W 002°60'0 0.0
2017-Aug-22 20:59N 53°23' W 002°60'0 0.0
2017-Aug-22 20:29N 53°23' W 002°60'0 0.0
2017-Aug-22 19:50N 53°23' W 002°60'0 0.0
2017-Aug-22 19:14N 53°23' W 002°60'0 0.0
2017-Aug-22 18:56N 53°23' W 002°60'0 0.0
2017-Aug-22 18:29N 53°23' W 002°60'0 0.0
2017-Aug-22 17:50N 53°23' W 002°60'0 0.0
2017-Aug-22 17:29N 53°23' W 002°60'0 0.0
2017-Aug-22 16:59N 53°23' W 002°60'0 0.0
2017-Aug-22 16:26N 53°23' W 002°60'0 0.0
2017-Aug-22 15:59N 53°23' W 002°60'0 0.0
2017-Aug-22 15:29N 53°23' W 002°60'0 0.0
2017-Aug-22 14:50N 53°23' W 002°60'0 0.0
2017-Aug-22 14:26N 53°23' W 002°60'0 0.0
2017-Aug-22 13:56N 53°23' W 002°60'0 0.0
2017-Aug-22 13:29N 53°23' W 002°60'0 0.0
2017-Aug-22 12:59N 53°23' W 002°60'0 0.0
2017-Aug-22 12:26N 53°23' W 002°60'0 0.0
2017-Aug-22 11:56N 53°23' W 002°60'0 0.0
2017-Aug-22 11:26N 53°23' W 002°60'0 0.0
2017-Aug-22 10:59N 53°23' W 002°60'0 0.0
2017-Aug-22 10:29N 53°23' W 002°60'0 0.1
2017-Aug-22 09:57N 53°23' W 002°60'0 0.0
2017-Aug-22 09:30N 53°23' W 002°60'0 0.0
2017-Aug-22 08:54N 53°23' W 002°60'0 0.0
2017-Aug-22 08:30N 53°23' W 002°60'0 0.0
2017-Aug-22 07:57N 53°23' W 002°60'0 0.0
2017-Aug-22 07:30N 53°23' W 002°60'0 0.0
2017-Aug-22 06:54N 53°23' W 002°60'0 0.0
2017-Aug-22 06:30N 53°23' W 002°60'0 0.0
2017-Aug-22 05:42N 53°23' W 002°60'0 0.0
2017-Aug-22 05:29N 53°23' W 002°60'0 0.0
2017-Aug-22 04:56N 53°23' W 002°60'0 0.0
2017-Aug-22 04:29N 53°23' W 002°60'0 0.0
2017-Aug-22 03:59N 53°23' W 002°60'0 0.0
2017-Aug-22 03:29N 53°23' W 002°60'0 0.0
2017-Aug-22 02:59N 53°23' W 002°60'0 0.0
2017-Aug-22 02:29N 53°23' W 002°60'0 0.0
2017-Aug-22 01:59N 53°23' W 002°60'0 0.0
2017-Aug-22 01:29N 53°23' W 002°60'0 0.0
2017-Aug-22 00:59N 53°23' W 002°60'0 0.0
2017-Aug-22 00:29N 53°23' W 002°60'0 0.0
2017-Aug-21 23:59N 53°23' W 002°60'0 0.6
2017-Aug-21 23:29N 53°23' W 003°00'1 1.2
2017-Aug-21 22:59N 53°24' W 003°00'3 5.7
2017-Aug-21 22:30N 53°26' W 003°01'4 8.7
2017-Aug-21 22:00N 53°30' W 003°06'4 7.7
2017-Aug-21 21:30N 53°32' W 003°11'5 9.4
2017-Aug-21 21:00N 53°32' W 003°19'4 8.2
2017-Aug-21 20:30N 53°31' W 003°12'4 8.7
2017-Aug-21 20:00N 53°30' W 003°05'4 8.3
2017-Aug-21 19:30N 53°26' W 003°01'4 7.0
2017-Aug-21 18:58N 53°23' W 003°00'0 0.0
2017-Aug-21 18:28N 53°23' W 003°00'0 0.0
2017-Aug-21 17:55N 53°23' W 003°00'0 0.0
2017-Aug-21 17:25N 53°23' W 003°00'0 0.0
2017-Aug-21 16:52N 53°23' W 003°00'0 0.0
2017-Aug-21 16:25N 53°23' W 003°00'0 0.0
2017-Aug-21 15:58N 53°23' W 003°00'0 0.0
2017-Aug-21 15:28N 53°23' W 003°00'0 0.0
2017-Aug-21 14:58N 53°23' W 003°00'0 0.0
2017-Aug-21 14:28N 53°23' W 003°00'0 0.0
2017-Aug-21 13:52N 53°23' W 003°00'0 0.0
2017-Aug-21 13:28N 53°23' W 003°00'0 0.0
2017-Aug-21 12:58N 53°23' W 003°00'0 0.0
2017-Aug-21 12:28N 53°23' W 003°00'0 0.0
2017-Aug-21 11:58N 53°23' W 003°00'0 0.0
2017-Aug-21 11:29N 53°23' W 003°00'4 8.1
2017-Aug-21 10:58N 53°27' W 003°01'0 0.9
2017-Aug-21 10:30N 53°27' W 003°01'0 0.8
2017-Aug-21 10:00N 53°27' W 003°01'0 0.5
2017-Aug-21 09:30N 53°27' W 003°01'0 0.4
2017-Aug-21 09:00N 53°27' W 003°01'4 7.8
2017-Aug-21 08:30N 53°23' W 003°00'0 0.1
2017-Aug-21 07:58N 53°23' W 003°00'0 0.0
2017-Aug-21 07:28N 53°23' W 003°00'0 0.0
2017-Aug-21 06:58N 53°23' W 003°00'0 0.0
2017-Aug-21 06:28N 53°23' W 003°00'0 0.0
2017-Aug-21 05:58N 53°23' W 003°00'0 0.0
2017-Aug-21 05:28N 53°23' W 003°00'0 0.0
2017-Aug-21 04:58N 53°23' W 003°00'0 0.0
2017-Aug-21 04:28N 53°23' W 003°00'0 0.0
2017-Aug-21 03:58N 53°23' W 003°00'0 0.0
2017-Aug-21 03:28N 53°23' W 003°00'0 0.0
2017-Aug-21 02:58N 53°23' W 003°00'0 0.0
2017-Aug-21 02:28N 53°23' W 003°00'0 0.0
2017-Aug-21 01:58N 53°23' W 003°00'0 0.0
2017-Aug-21 01:28N 53°23' W 003°00'0 0.0
2017-Aug-21 00:55N 53°23' W 003°00'0 0.0
2017-Aug-21 00:28N 53°23' W 003°00'0 0.0
2017-Aug-20 23:58N 53°23' W 003°00'0 0.0
2017-Aug-20 23:28N 53°23' W 003°00'0 0.4
2017-Aug-20 22:59N 53°23' W 002°60'0 0.0
2017-Aug-20 22:29N 53°23' W 002°60'0 0.5
2017-Aug-20 21:56N 53°23' W 003°00'1 3.0
2017-Aug-20 21:30N 53°24' W 003°01'4 7.7
2017-Aug-20 21:00N 53°28' W 003°03'5 9.7
2017-Aug-20 20:30N 53°32' W 003°08'5 9.8
2017-Aug-20 20:00N 53°31' W 003°16'1 1.2
2017-Aug-20 19:30N 53°32' W 003°15'5 8.9
2017-Aug-20 19:00N 53°32' W 003°08'4 9.1
2017-Aug-20 18:30N 53°28' W 003°03'2 2.4
2017-Aug-20 17:51N 53°27' W 003°01'2 4.3
2017-Aug-20 17:26N 53°25' W 003°00'0 0.0
2017-Aug-20 16:59N 53°25' W 003°00'0 0.0
2017-Aug-20 16:26N 53°25' W 003°00'0 0.0
2017-Aug-20 15:59N 53°25' W 003°00'0 0.0
2017-Aug-20 15:26N 53°25' W 003°00'0 0.0
2017-Aug-20 14:59N 53°25' W 003°00'0 0.0
2017-Aug-20 14:29N 53°25' W 003°00'0 0.0
2017-Aug-20 13:56N 53°25' W 003°00'0 0.0
2017-Aug-20 13:26N 53°25' W 003°00'0 0.0
2017-Aug-20 12:59N 53°25' W 003°00'0 0.0
2017-Aug-20 12:29N 53°25' W 003°00'0 0.0
2017-Aug-20 11:59N 53°25' W 003°00'0 0.0
2017-Aug-20 11:29N 53°25' W 003°00'0 0.0
2017-Aug-20 10:53N 53°25' W 003°00'0 0.0
2017-Aug-20 10:26N 53°25' W 003°00'0 0.0
2017-Aug-20 09:59N 53°25' W 003°00'0 0.0
2017-Aug-20 09:29N 53°25' W 003°00'0 0.0
2017-Aug-20 08:56N 53°25' W 003°00'0 0.0
2017-Aug-20 08:23N 53°25' W 003°00'0 0.0
2017-Aug-20 07:59N 53°25' W 003°00'0 0.0
2017-Aug-20 07:29N 53°25' W 003°00'0 0.0
2017-Aug-20 06:59N 53°25' W 003°00'0 0.0
2017-Aug-20 06:29N 53°25' W 003°00'0 0.0
2017-Aug-20 05:59N 53°25' W 003°00'0 0.0
2017-Aug-20 05:29N 53°25' W 003°00'0 0.0
2017-Aug-20 04:53N 53°25' W 003°00'0 0.0
2017-Aug-20 04:29N 53°25' W 003°00'0 0.0
2017-Aug-20 03:56N 53°25' W 003°00'0 0.0
2017-Aug-20 03:29N 53°25' W 003°00'0 0.0
2017-Aug-20 02:59N 53°25' W 003°00'0 0.0
2017-Aug-20 02:29N 53°25' W 003°00'0 0.0
2017-Aug-20 01:56N 53°25' W 003°00'0 0.0
2017-Aug-20 01:29N 53°25' W 003°00'0 0.0
2017-Aug-20 00:59N 53°25' W 003°00'0 0.0
2017-Aug-20 00:29N 53°25' W 003°00'0 0.0
2017-Aug-19 23:59N 53°25' W 003°00'0 0.0
2017-Aug-19 23:26N 53°25' W 003°00'0 0.0
2017-Aug-19 22:59N 53°25' W 003°00'0 0.0
2017-Aug-19 22:29N 53°25' W 003°00'0 0.0
2017-Aug-19 21:59N 53°25' W 003°00'0 0.0
2017-Aug-19 21:14N 53°25' W 003°00'0 0.0
2017-Aug-19 20:53N 53°25' W 003°00'0 0.0
2017-Aug-19 20:26N 53°25' W 003°00'0 0.0
2017-Aug-19 19:59N 53°25' W 003°00'2 3.3
2017-Aug-19 19:30N 53°27' W 003°01'0 0.6
2017-Aug-19 18:52N 53°27' W 003°01'0 0.1
2017-Aug-19 18:25N 53°27' W 003°01'0 0.0
2017-Aug-19 18:01N 53°27' W 003°01'0 0.0
2017-Aug-19 17:28N 53°27' W 003°01'0 0.1
2017-Aug-19 17:01N 53°27' W 003°01'0 0.7
2017-Aug-19 16:28N 53°27' W 003°01'0 0.0
2017-Aug-19 15:58N 53°27' W 003°01'0 0.0
2017-Aug-19 15:25N 53°27' W 003°01'0 0.0
2017-Aug-19 14:57N 53°27' W 003°01'0 0.0
2017-Aug-19 13:57N 53°27' W 003°01'0 0.0
2017-Aug-19 13:30N 53°27' W 003°01'0 0.3
2017-Aug-19 12:59N 53°28' W 003°01'1 1.0
2017-Aug-19 12:26N 53°27' W 003°01'0 0.4
2017-Aug-19 12:00N 53°27' W 003°01'1 0.9
2017-Aug-19 11:27N 53°27' W 003°01'1 1.3
2017-Aug-19 11:00N 53°27' W 003°02'1 1.7
2017-Aug-19 10:27N 53°26' W 003°01'0 0.0
2017-Aug-19 10:00N 53°26' W 003°01'1 1.8
2017-Aug-19 09:30N 53°25' W 003°00'0 0.0
2017-Aug-19 08:57N 53°25' W 003°00'0 0.0
2017-Aug-19 08:30N 53°25' W 003°00'0 0.0
2017-Aug-19 08:00N 53°25' W 003°00'0 0.0
2017-Aug-19 07:30N 53°25' W 003°00'0 0.0
2017-Aug-19 07:00N 53°25' W 003°00'0 0.0
2017-Aug-19 06:30N 53°25' W 003°00'0 0.0
2017-Aug-19 06:00N 53°25' W 003°00'0 0.0
2017-Aug-19 05:27N 53°25' W 003°00'0 0.0
2017-Aug-19 04:59N 53°25' W 003°00'0 0.0
2017-Aug-19 04:29N 53°25' W 003°00'0 0.0
2017-Aug-19 03:59N 53°25' W 003°00'0 0.0
2017-Aug-19 03:26N 53°25' W 003°00'0 0.0
2017-Aug-19 02:56N 53°25' W 003°00'0 0.0
2017-Aug-19 02:29N 53°25' W 003°00'0 0.0
2017-Aug-19 01:53N 53°25' W 003°00'0 0.0
2017-Aug-19 01:26N 53°25' W 003°00'0 0.0
2017-Aug-19 00:53N 53°25' W 003°00'0 0.0
2017-Aug-19 00:29N 53°25' W 003°00'0 0.0
2017-Aug-18 23:59N 53°25' W 003°00'0 0.0
2017-Aug-18 23:29N 53°25' W 003°00'0 0.0
2017-Aug-18 22:59N 53°25' W 003°00'0 0.0
2017-Aug-18 22:23N 53°25' W 003°00'0 0.0
2017-Aug-18 21:59N 53°25' W 003°00'0 0.0
2017-Aug-18 21:29N 53°25' W 003°00'0 0.0
2017-Aug-18 20:59N 53°25' W 003°00'0 0.0
2017-Aug-18 20:29N 53°25' W 003°00'0 0.0
2017-Aug-18 19:59N 53°25' W 003°00'0 0.0
2017-Aug-18 19:29N 53°25' W 003°00'0 0.0
2017-Aug-18 18:59N 53°25' W 003°00'0 0.0
2017-Aug-18 18:29N 53°25' W 003°00'0 0.0
2017-Aug-18 17:59N 53°25' W 003°00'0 0.0
2017-Aug-18 17:29N 53°25' W 003°00'0 0.0
2017-Aug-18 16:59N 53°25' W 003°00'0 0.0
2017-Aug-18 16:29N 53°25' W 003°00'0 0.0
2017-Aug-18 15:59N 53°25' W 003°00'0 0.0
2017-Aug-18 15:29N 53°25' W 003°00'0 0.0
2017-Aug-18 14:56N 53°25' W 003°00'0 0.0
2017-Aug-18 14:29N 53°25' W 003°00'0 0.0
2017-Aug-18 13:29N 53°25' W 003°00'0 0.0
2017-Aug-18 12:59N 53°25' W 003°00'0 0.0
2017-Aug-18 12:29N 53°25' W 003°00'0 0.0
2017-Aug-18 11:56N 53°25' W 003°00'0 0.0
2017-Aug-18 11:29N 53°25' W 003°00'0 0.0
2017-Aug-18 10:59N 53°25' W 003°00'0 0.0
2017-Aug-18 10:29N 53°25' W 003°00'0 0.0
2017-Aug-18 09:59N 53°25' W 003°00'0 0.0
2017-Aug-18 09:29N 53°25' W 003°00'0 0.0
2017-Aug-18 08:59N 53°25' W 003°00'0 0.0
2017-Aug-18 08:29N 53°25' W 003°00'0 0.0
2017-Aug-18 07:56N 53°25' W 003°00'0 0.0
2017-Aug-18 07:26N 53°25' W 003°00'0 0.0
2017-Aug-18 06:56N 53°25' W 003°00'0 0.0
2017-Aug-18 06:29N 53°25' W 003°00'0 0.0
2017-Aug-18 05:56N 53°25' W 003°00'0 0.0
2017-Aug-18 05:29N 53°25' W 003°00'0 0.0
2017-Aug-18 04:59N 53°25' W 003°00'0 0.0
2017-Aug-18 04:29N 53°25' W 003°00'0 0.0
2017-Aug-18 03:59N 53°25' W 003°00'0 0.0
2017-Aug-18 03:29N 53°25' W 003°00'0 0.0
2017-Aug-18 02:56N 53°25' W 003°00'0 0.0
2017-Aug-18 02:29N 53°25' W 003°00'0 0.0
2017-Aug-18 01:59N 53°25' W 003°00'0 0.0
2017-Aug-18 01:26N 53°25' W 003°00'0 0.0
2017-Aug-18 00:59N 53°25' W 003°00'0 0.0
2017-Aug-18 00:29N 53°25' W 003°00'0 0.0
2017-Aug-17 23:59N 53°25' W 003°00'0 0.0
2017-Aug-17 23:29N 53°25' W 003°00'0 0.0
2017-Aug-17 22:59N 53°25' W 003°00'0 0.0
2017-Aug-17 22:26N 53°25' W 003°00'0 0.0
2017-Aug-17 21:59N 53°25' W 003°00'0 0.0
2017-Aug-17 21:26N 53°25' W 003°00'0 0.0
2017-Aug-17 20:56N 53°25' W 003°00'0 0.0
2017-Aug-17 20:26N 53°25' W 003°00'0 0.0
2017-Aug-17 19:59N 53°25' W 003°00'0 0.0
2017-Aug-17 19:25N 53°25' W 003°00'0 0.0
2017-Aug-17 18:55N 53°25' W 003°00'0 0.0
2017-Aug-17 18:28N 53°25' W 003°00'0 0.0
2017-Aug-17 17:58N 53°25' W 003°00'0 0.0
2017-Aug-17 17:28N 53°25' W 003°00'0 0.0
2017-Aug-17 16:58N 53°25' W 003°00'0 0.0
2017-Aug-17 16:28N 53°25' W 003°00'0 0.0
2017-Aug-17 15:58N 53°25' W 003°00'0 0.0
2017-Aug-17 15:28N 53°25' W 003°00'0 0.0
2017-Aug-17 14:58N 53°25' W 003°00'0 0.0
2017-Aug-17 14:22N 53°25' W 003°00'0 0.0
2017-Aug-17 13:52N 53°25' W 003°00'0 0.0
2017-Aug-17 13:28N 53°25' W 003°00'0 0.0
2017-Aug-17 12:58N 53°25' W 003°00'0 0.0
2017-Aug-17 12:28N 53°25' W 003°00'0 0.0
2017-Aug-17 11:55N 53°25' W 003°00'0 0.0
2017-Aug-17 11:28N 53°25' W 003°00'0 0.0
2017-Aug-17 10:55N 53°25' W 003°00'0 0.0
2017-Aug-17 10:28N 53°25' W 003°00'0 0.0
2017-Aug-17 09:52N 53°25' W 003°00'0 0.0
2017-Aug-17 09:25N 53°25' W 003°00'0 0.0
2017-Aug-17 08:58N 53°25' W 003°00'0 0.0
2017-Aug-17 08:28N 53°25' W 003°00'0 0.0
2017-Aug-17 07:55N 53°25' W 003°00'0 0.0
2017-Aug-17 07:28N 53°25' W 003°00'0 0.0
2017-Aug-17 06:55N 53°25' W 003°00'0 0.0
2017-Aug-17 06:28N 53°25' W 003°00'2 3.3
2017-Aug-17 06:00N 53°27' W 003°01'0 0.7
2017-Aug-17 05:27N 53°27' W 003°01'0 0.6
2017-Aug-17 05:00N 53°27' W 003°01'0 0.0
2017-Aug-17 04:30N 53°27' W 003°01'0 0.0
2017-Aug-17 03:58N 53°27' W 003°01'0 0.6
2017-Aug-17 03:30N 53°27' W 003°01'0 0.5
2017-Aug-17 02:55N 53°26' W 003°01'2 5.0
2017-Aug-17 02:30N 53°24' W 003°00'2 2.9
2017-Aug-17 01:55N 53°23' W 002°60'0 0.2
2017-Aug-17 01:28N 53°23' W 002°60'0 0.0
2017-Aug-17 00:55N 53°23' W 002°60'0 0.0
2017-Aug-17 00:28N 53°23' W 002°60'0 0.0
2017-Aug-16 23:55N 53°23' W 002°60'0 0.0
2017-Aug-16 23:28N 53°23' W 002°60'0 0.0
2017-Aug-16 22:55N 53°23' W 002°60'0 0.0
2017-Aug-16 22:28N 53°23' W 002°60'0 0.0
2017-Aug-16 21:55N 53°23' W 002°60'0 0.0
2017-Aug-16 21:31N 53°23' W 002°60'0 0.0
2017-Aug-16 20:58N 53°23' W 002°60'0 0.0
2017-Aug-16 20:31N 53°23' W 002°60'0 0.0
2017-Aug-16 20:00N 53°23' W 002°60'0 0.0
2017-Aug-16 19:30N 53°23' W 002°60'0 0.0
2017-Aug-16 19:00N 53°23' W 002°60'0 0.0
2017-Aug-16 18:30N 53°23' W 002°60'0 0.0
2017-Aug-16 17:57N 53°23' W 002°60'0 0.0
2017-Aug-16 17:30N 53°23' W 002°60'0 0.0
2017-Aug-16 17:00N 53°23' W 002°60'0 0.1
2017-Aug-16 16:30N 53°23' W 002°60'4 8.6
2017-Aug-16 16:00N 53°27' W 003°01'0 0.5
2017-Aug-16 15:27N 53°27' W 003°01'2 5.5
2017-Aug-16 15:00N 53°29' W 003°04'2 4.0
2017-Aug-16 14:30N 53°27' W 003°02'4 8.4
2017-Aug-16 14:00N 53°23' W 002°60'0 0.5
2017-Aug-16 13:29N 53°23' W 002°60'0 0.0
2017-Aug-16 12:59N 53°23' W 002°60'0 0.2
2017-Aug-16 12:28N 53°23' W 002°60'0 0.0
2017-Aug-16 11:58N 53°23' W 002°60'0 0.0
2017-Aug-16 11:28N 53°23' W 002°60'0 0.0
2017-Aug-16 10:58N 53°23' W 002°60'0 0.0
2017-Aug-16 10:28N 53°23' W 002°60'0 0.0
2017-Aug-16 09:58N 53°23' W 002°60'0 0.0
2017-Aug-16 09:28N 53°23' W 002°60'0 0.0
2017-Aug-16 08:58N 53°23' W 002°60'0 0.0
2017-Aug-16 08:28N 53°23' W 002°60'0 0.0
2017-Aug-16 07:58N 53°23' W 002°60'0 0.0
2017-Aug-16 07:28N 53°23' W 002°60'0 0.0
2017-Aug-16 06:58N 53°23' W 002°60'0 0.0
2017-Aug-16 06:25N 53°23' W 002°60'0 0.0
2017-Aug-16 05:55N 53°23' W 002°60'0 0.0
2017-Aug-16 05:28N 53°23' W 002°60'0 0.0
2017-Aug-16 04:55N 53°23' W 002°60'0 0.0
2017-Aug-16 04:28N 53°23' W 002°60'0 0.0
2017-Aug-16 03:58N 53°23' W 002°60'0 0.0
2017-Aug-16 03:25N 53°23' W 002°60'0 0.0
2017-Aug-16 03:01N 53°23' W 002°60'0 0.0
2017-Aug-16 02:30N 53°23' W 002°60'0 0.0
2017-Aug-16 01:57N 53°23' W 002°60'0 0.0
2017-Aug-16 01:30N 53°23' W 002°60'0 0.0
2017-Aug-16 00:57N 53°23' W 002°60'0 0.0
2017-Aug-16 00:24N 53°23' W 002°60'0 0.0
2017-Aug-15 23:54N 53°23' W 002°60'0 0.0
2017-Aug-15 23:24N 53°23' W 002°60'0 0.0
2017-Aug-15 23:00N 53°23' W 002°60'0 0.0
2017-Aug-15 22:24N 53°23' W 002°60'0 0.0
2017-Aug-15 22:00N 53°23' W 002°60'0 0.0
2017-Aug-15 21:18N 53°23' W 002°60'0 0.0
2017-Aug-15 21:00N 53°23' W 002°60'0 0.0
2017-Aug-15 20:30N 53°23' W 002°60'0 0.0
2017-Aug-15 19:57N 53°23' W 002°60'0 0.0
2017-Aug-15 19:27N 53°23' W 002°60'0 0.0
2017-Aug-15 18:57N 53°23' W 002°60'0 0.0
2017-Aug-15 18:27N 53°23' W 002°60'0 0.0
2017-Aug-15 17:57N 53°23' W 002°60'0 0.0
2017-Aug-15 17:30N 53°23' W 002°60'0 0.0
2017-Aug-15 17:00N 53°23' W 002°60'0 0.0
2017-Aug-15 16:27N 53°23' W 002°60'0 0.0
2017-Aug-15 16:00N 53°23' W 002°60'0 0.0
2017-Aug-15 15:30N 53°23' W 002°60'0 0.1
2017-Aug-15 14:49N 53°23' W 002°60'2 3.8
2017-Aug-15 14:21N 53°24' W 003°00'0 0.0
2017-Aug-15 14:00N 53°24' W 003°00'0 0.0
2017-Aug-15 13:30N 53°24' W 003°00'0 0.0
2017-Aug-15 13:00N 53°24' W 003°00'0 0.0
2017-Aug-15 12:21N 53°24' W 003°00'0 0.0
2017-Aug-15 12:00N 53°24' W 003°00'0 0.0
2017-Aug-15 11:27N 53°24' W 003°00'0 0.0
2017-Aug-15 11:00N 53°24' W 003°00'0 0.0
2017-Aug-15 10:30N 53°24' W 003°00'0 0.0
2017-Aug-15 10:00N 53°24' W 003°00'0 0.0
2017-Aug-15 09:30N 53°24' W 003°00'0 0.0
2017-Aug-15 09:00N 53°24' W 003°00'0 0.0
2017-Aug-15 08:27N 53°24' W 003°00'0 0.0
2017-Aug-15 08:00N 53°24' W 003°00'0 0.0
2017-Aug-15 07:24N 53°24' W 003°00'0 0.0
2017-Aug-15 07:00N 53°24' W 003°00'0 0.0
2017-Aug-15 06:30N 53°24' W 003°00'0 0.0
2017-Aug-15 06:00N 53°24' W 003°00'0 0.0
2017-Aug-15 05:30N 53°24' W 003°00'0 0.0
2017-Aug-15 05:00N 53°24' W 003°00'0 0.5
2017-Aug-15 04:30N 53°24' W 003°00'1 2.4
2017-Aug-15 03:59N 53°23' W 003°00'1 2.0
2017-Aug-15 03:30N 53°24' W 003°00'4 8.3
2017-Aug-15 03:00N 53°28' W 003°03'4 8.9
2017-Aug-15 02:30N 53°31' W 003°07'4 8.5
2017-Aug-15 02:00N 53°31' W 003°14'1 2.1
2017-Aug-15 01:30N 53°31' W 003°13'5 9.4
2017-Aug-15 01:00N 53°30' W 003°05'5 9.9
2017-Aug-15 00:30N 53°26' W 003°01'3 5.5
2017-Aug-15 00:00N 53°23' W 003°00'0 0.0
2017-Aug-14 23:30N 53°23' W 003°00'0 0.0
2017-Aug-14 22:57N 53°23' W 003°00'0 0.0
2017-Aug-14 22:30N 53°23' W 003°00'0 0.0
2017-Aug-14 22:00N 53°23' W 003°00'0 0.0
2017-Aug-14 21:30N 53°23' W 003°00'0 0.0
2017-Aug-14 21:00N 53°23' W 003°00'0 0.0
2017-Aug-14 20:30N 53°23' W 003°00'0 0.0
2017-Aug-14 19:57N 53°23' W 003°00'0 0.0
2017-Aug-14 19:30N 53°23' W 003°00'0 0.0
2017-Aug-14 19:00N 53°23' W 003°00'0 0.0
2017-Aug-14 18:29N 53°23' W 003°00'0 0.0
2017-Aug-14 17:56N 53°23' W 003°00'0 0.0
2017-Aug-14 17:29N 53°23' W 003°00'0 0.0
2017-Aug-14 16:59N 53°23' W 003°00'0 0.0
2017-Aug-14 16:29N 53°23' W 003°00'0 0.0
2017-Aug-14 15:59N 53°23' W 003°00'0 0.0
2017-Aug-14 15:26N 53°23' W 003°00'0 0.0
2017-Aug-14 14:59N 53°23' W 003°00'0 0.0
2017-Aug-14 14:29N 53°23' W 003°00'0 0.0
2017-Aug-14 13:53N 53°23' W 003°00'0 0.0
2017-Aug-14 13:29N 53°23' W 003°00'0 0.0
2017-Aug-14 12:59N 53°23' W 003°00'0 0.0
2017-Aug-14 12:29N 53°23' W 003°00'0 0.0
2017-Aug-14 11:56N 53°23' W 003°00'0 0.0
2017-Aug-14 11:26N 53°23' W 003°00'0 0.0
2017-Aug-14 10:53N 53°23' W 003°00'0 0.0
2017-Aug-14 10:29N 53°23' W 003°00'0 0.0
2017-Aug-14 09:59N 53°23' W 003°00'0 0.0
2017-Aug-14 09:29N 53°23' W 003°00'0 0.0
2017-Aug-14 08:56N 53°23' W 003°00'0 0.0
2017-Aug-14 08:20N 53°23' W 003°00'0 0.0
2017-Aug-14 07:59N 53°23' W 003°00'0 0.0
2017-Aug-14 07:26N 53°23' W 003°00'0 0.0
2017-Aug-14 06:59N 53°23' W 003°00'0 0.0
2017-Aug-14 06:29N 53°23' W 003°00'0 0.0
2017-Aug-14 05:56N 53°23' W 003°00'0 0.0
2017-Aug-14 05:29N 53°23' W 003°00'0 0.0
2017-Aug-14 04:59N 53°23' W 003°00'0 0.0
2017-Aug-14 04:29N 53°23' W 003°00'0 0.0
2017-Aug-14 03:59N 53°23' W 003°00'0 0.0
2017-Aug-14 03:26N 53°23' W 003°00'0 0.0
2017-Aug-14 02:56N 53°23' W 003°00'0 0.0
2017-Aug-14 02:29N 53°23' W 003°00'0 0.4
2017-Aug-14 02:00N 53°23' W 002°60'1 2.5
2017-Aug-14 01:30N 53°24' W 003°00'0 0.8
2017-Aug-14 00:58N 53°24' W 002°60'1 1.2
2017-Aug-14 00:30N 53°25' W 003°01'2 4.4
2017-Aug-14 00:00N 53°27' W 003°01'2 3.2
2017-Aug-13 23:30N 53°26' W 003°00'0 0.2
2017-Aug-13 22:59N 53°25' W 003°00'0 0.0
2017-Aug-13 22:29N 53°25' W 003°00'0 0.0
2017-Aug-13 21:59N 53°25' W 003°00'0 0.0
2017-Aug-13 21:29N 53°25' W 003°00'0 0.0
2017-Aug-13 20:59N 53°25' W 003°00'0 0.0
2017-Aug-13 20:29N 53°25' W 003°00'0 0.0
2017-Aug-13 19:53N 53°25' W 003°00'0 0.0
2017-Aug-13 19:29N 53°25' W 003°00'0 0.0
2017-Aug-13 18:59N 53°25' W 003°00'0 0.0
2017-Aug-13 18:29N 53°25' W 003°00'0 0.0
2017-Aug-13 17:59N 53°25' W 003°00'0 0.0
2017-Aug-13 17:29N 53°25' W 003°00'0 0.0
2017-Aug-13 16:59N 53°25' W 003°00'0 0.0
2017-Aug-13 16:26N 53°25' W 003°00'0 0.0
2017-Aug-13 15:58N 53°25' W 003°00'0 0.0
2017-Aug-13 15:25N 53°25' W 003°00'0 0.0
2017-Aug-13 14:58N 53°25' W 003°00'0 0.0
2017-Aug-13 14:28N 53°25' W 003°00'0 0.0
2017-Aug-13 13:58N 53°25' W 003°00'0 0.0
2017-Aug-13 13:28N 53°25' W 003°00'0 0.0
2017-Aug-13 12:58N 53°25' W 003°00'2 3.6
2017-Aug-13 12:28N 53°27' W 003°01'0 0.9
2017-Aug-13 11:58N 53°28' W 003°02'0 0.7
2017-Aug-13 11:30N 53°28' W 003°01'2 4.4
2017-Aug-13 10:59N 53°25' W 003°00'0 0.0
2017-Aug-13 10:23N 53°25' W 003°00'0 0.0
2017-Aug-13 09:59N 53°25' W 003°00'0 0.0
2017-Aug-13 09:29N 53°25' W 003°00'0 0.0
2017-Aug-13 08:59N 53°25' W 003°00'0 0.0
2017-Aug-13 08:29N 53°25' W 003°00'0 0.0
2017-Aug-13 07:59N 53°25' W 003°00'0 0.0
2017-Aug-13 07:26N 53°25' W 003°00'0 0.0
2017-Aug-13 06:59N 53°25' W 003°00'0 0.0
2017-Aug-13 06:29N 53°25' W 003°00'0 0.0
2017-Aug-13 05:50N 53°25' W 003°00'0 0.0
2017-Aug-13 05:29N 53°25' W 003°00'0 0.0
2017-Aug-13 04:59N 53°25' W 003°00'0 0.0
2017-Aug-13 04:29N 53°25' W 003°00'  

Dump ship's entire track history